Welcome to Des Moines Iowa Weather. I am an independent private personal weather station on the Northwest Side of Des Moines, Iowa. Just East of Windsor Heights and just West of Glendale . This site is also mobile friendly.

There are no active watches, warnings or advisories


Visit our other weather sites:

Historical Data

Weather Station Setup



Weather Underground History page Text

Daily Summary for March 9, 2018 Units:  Metric    English   Both
« Previous Day
Next Day »
Daily Weekly Monthly Yearly Custom
  High: Low: Average:
Temperature: 3.6 °C -5.1 °C -1.7 °C
Dew Point: -2.2 °C -7.8 °C -5.4 °C
Humidity: 83 % 62 % 76 %
Wind Speed: 4.8 km/h 0 km/h 1.1 km/h
Wind Gust: 17.7 km/h - -
Wind:- - SE
Pressure: 1019.9 hPa 1013.8 hPa -
Precipitation: 0.25 mm    
Historical Graphs
 
 
Tabular Data for March 9, 2018
Time Temperature Dew Point Pressure Wind Wind Speed Wind Gust Humidity Rainfall Rate (Hourly)
00:00 -5.1 °C -7.7 °C 1018.5 hPa Calm     82 % 0 mm
00:05 -5.1 °C -7.7 °C 1018.5 hPa Calm     82 % 0 mm
00:08 -5 °C -7.8 °C 1019.5 hPa Calm     82 % 0 mm
00:10 -5.1 °C -7.7 °C 1018.5 hPa Calm     82 % 0 mm
00:15 -5 °C -7.6 °C 1018.5 hPa Calm     82 % 0 mm
00:20 -5 °C -7.6 °C 1018.5 hPa Calm     82 % 0 mm
00:25 -5 °C -7.6 °C 1018.5 hPa Calm     82 % 0 mm
00:26 -4.9 °C -7.2 °C 1018.5 hPa Calm     83 % 0 mm
00:30 -4.9 °C -7.5 °C 1018.5 hPa Calm     82 % 0 mm
00:35 -4.9 °C -7.5 °C 1018.5 hPa Calm     82 % 0 mm
00:38 -4.7 °C -7.2 °C 1019.9 hPa Calm     83 % 0 mm
00:40 -4.9 °C -7.5 °C 1018.5 hPa Calm     82 % 0 mm
00:45 -4.8 °C -7.2 °C 1018.5 hPa Calm     83 % 0 mm
00:50 -4.8 °C -7.2 °C 1018.5 hPa Calm     83 % 0 mm
00:53 -4.6 °C -7.2 °C 1019.9 hPa Calm     83 % 0 mm
00:55 -4.7 °C -7.1 °C 1018.8 hPa Calm     83 % 0 mm
01:00 -4.7 °C -7.1 °C 1018.8 hPa Calm     83 % 0 mm
01:05 -4.7 °C -7.1 °C 1018.8 hPa Calm     83 % 0 mm
01:08 -4.3 °C -7.2 °C 1019.9 hPa Calm     82 % 0 mm
01:10 -4.4 °C -6.8 °C 1018.8 hPa Calm     83 % 0 mm
01:15 -4.4 °C -6.8 °C 1018.8 hPa Calm     83 % 0 mm
01:20 -4.4 °C -6.8 °C 1018.8 hPa Calm     83 % 0 mm
01:23 -4.1 °C -6.7 °C 1019.5 hPa Calm     82 % 0 mm
01:25 -4.2 °C -6.8 °C 1018.5 hPa Calm     82 % 0 mm
01:30 -4.2 °C -6.8 °C 1018.5 hPa Calm     82 % 0 mm
01:35 -4.2 °C -6.8 °C 1018.5 hPa Calm     82 % 0 mm
01:38 -3.9 °C -6.7 °C 1019.5 hPa Calm     82 % 0 mm
01:40 -4 °C -6.6 °C 1018.5 hPa Calm     82 % 0 mm
01:45 -4 °C -6.6 °C 1018.5 hPa Calm     82 % 0 mm
01:50 -4 °C -6.6 °C 1018.5 hPa Calm     82 % 0 mm
01:53 -3.8 °C -6.7 °C 1019.2 hPa Calm   3.2 km/h 81 % 0 mm
01:55 -4 °C -6.6 °C 1018.5 hPa Calm     82 % 0 mm
02:00 -3.8 °C -6.6 °C 1018.2 hPa Calm     81 % 0 mm
02:05 -3.8 °C -6.6 °C 1018.2 hPa Calm     81 % 0 mm
02:08 -3.7 °C -6.7 °C 1018.8 hPa Calm   4.8 km/h 80 % 0 mm
02:10 -3.8 °C -6.6 °C 1018.2 hPa Calm     81 % 0 mm
02:15 -3.7 °C -6.4 °C 1017.8 hPa Calm   1.6 km/h 81 % 0 mm
02:20 -3.7 °C -6.4 °C 1017.8 hPa Calm   1.6 km/h 81 % 0 mm
02:23 -3.6 °C -6.7 °C 1018.8 hPa Calm   3.2 km/h 80 % 0 mm
02:25 -3.7 °C -6.4 °C 1017.8 hPa Calm   1.6 km/h 81 % 0 mm
02:30 -3.6 °C -6.6 °C 1017.8 hPa Calm     80 % 0 mm
02:35 -3.6 °C -6.6 °C 1017.8 hPa Calm     80 % 0 mm
02:38 -3.6 °C -6.7 °C 1018.8 hPa Calm   3.2 km/h 80 % 0 mm
02:40 -3.6 °C -6.5 °C 1017.8 hPa Calm     80 % 0 mm
02:45 -3.6 °C -6.5 °C 1017.8 hPa Calm     80 % 0 mm
02:50 -3.6 °C -6.5 °C 1017.8 hPa Calm     80 % 0 mm
02:53 -3.6 °C -6.7 °C 1018.5 hPa Calm   4.8 km/h 79 % 0 mm
02:55 -3.6 °C -6.7 °C 1017.8 hPa Calm   3.2 km/h 79 % 0 mm
03:00 -3.6 °C -6.7 °C 1017.8 hPa Calm   3.2 km/h 79 % 0 mm
03:05 -3.6 °C -6.7 °C 1017.8 hPa Calm   3.2 km/h 79 % 0 mm
03:08 -3.7 °C -7.2 °C 1018.5 hPa SSE 1.6 km/h 8 km/h 78 % 0 mm
03:10 -3.7 °C -6.9 °C 1017.5 hPa Calm   4.8 km/h 78 % 0 mm
03:15 -3.7 °C -6.9 °C 1017.5 hPa Calm   4.8 km/h 78 % 0 mm
03:20 -3.7 °C -6.9 °C 1017.5 hPa Calm   4.8 km/h 78 % 0 mm
03:23 -3.8 °C -7.2 °C 1018.5 hPa Calm   9.7 km/h 78 % 0 mm
03:25 -3.7 °C -6.9 °C 1017.5 hPa Calm   4.8 km/h 78 % 0 mm
03:30 -3.8 °C -7.1 °C 1017.5 hPa SSE 1.6 km/h 11.3 km/h 78 % 0 mm
03:35 -3.8 °C -7.1 °C 1017.5 hPa SSE 1.6 km/h 11.3 km/h 78 % 0 mm
03:38 -3.8 °C -7.2 °C 1018.5 hPa Calm   4.8 km/h 78 % 0 mm
03:40 -3.8 °C -7.1 °C 1017.5 hPa SSE 1.6 km/h 11.3 km/h 78 % 0 mm
03:45 -3.8 °C -7.1 °C 1017.2 hPa Calm   6.4 km/h 78 % 0 mm
03:50 -3.8 °C -7.1 °C 1017.2 hPa Calm   6.4 km/h 78 % 0 mm
03:53 -3.8 °C -7.2 °C 1018.2 hPa SE 1.6 km/h 3.2 km/h 78 % 0 mm
03:55 -3.8 °C -7.1 °C 1017.2 hPa Calm   6.4 km/h 78 % 0 mm
04:00 -3.8 °C -7.1 °C 1017.2 hPa Calm     78 % 0 mm
04:05 -3.8 °C -7.1 °C 1017.2 hPa Calm     78 % 0 mm
04:08 -3.8 °C -7.2 °C 1018.2 hPa ESE 1.6 km/h 6.4 km/h 78 % 0 mm
04:10 -3.8 °C -7.1 °C 1017.2 hPa Calm     78 % 0 mm
04:15 -3.8 °C -7.1 °C 1016.8 hPa Calm   9.7 km/h 78 % 0 mm
04:20 -3.8 °C -7.1 °C 1016.8 hPa Calm   9.7 km/h 78 % 0 mm
04:23 -3.9 °C -7.2 °C 1018.2 hPa Calm   6.4 km/h 79 % 0 mm
04:25 -3.9 °C -7 °C 1017.2 hPa South 1.6 km/h 8 km/h 79 % 0 mm
04:30 -3.9 °C -7 °C 1017.2 hPa South 1.6 km/h 8 km/h 79 % 0 mm
04:35 -3.9 °C -7 °C 1017.2 hPa South 1.6 km/h 8 km/h 79 % 0 mm
04:38 -4 °C -7.2 °C 1017.8 hPa Calm   4.8 km/h 79 % 0 mm
04:40 -4 °C -7.1 °C 1016.8 hPa Calm   6.4 km/h 79 % 0 mm
04:45 -4 °C -7.1 °C 1016.8 hPa Calm   6.4 km/h 79 % 0 mm
04:50 -4 °C -7.1 °C 1016.8 hPa Calm   6.4 km/h 79 % 0 mm
04:53 -4.2 °C -7.2 °C 1017.8 hPa Calm   9.7 km/h 80 % 0 mm
04:55 -4.1 °C -7.1 °C 1016.8 hPa SSE 1.6 km/h 8 km/h 80 % 0 mm
05:00 -4.1 °C -7.1 °C 1016.8 hPa SSE 1.6 km/h 8 km/h 80 % 0 mm
05:05 -4.1 °C -7.1 °C 1016.8 hPa SSE 1.6 km/h 8 km/h 80 % 0 mm
05:08 -4.2 °C -7.2 °C 1017.8 hPa Calm   1.6 km/h 81 % 0 mm
05:10 -4.1 °C -7.1 °C 1016.8 hPa SSE 1.6 km/h 8 km/h 80 % 0 mm
05:15 -4.2 °C -7.2 °C 1016.8 hPa Calm   8 km/h 80 % 0 mm
05:20 -4.2 °C -7.2 °C 1016.8 hPa Calm   8 km/h 80 % 0 mm
05:23 -4.3 °C -7.2 °C 1017.8 hPa Calm     81 % 0 mm
05:25 -4.2 °C -7.2 °C 1016.8 hPa Calm   8 km/h 80 % 0 mm
05:30 -4.3 °C -7.1 °C 1016.8 hPa Calm   6.4 km/h 81 % 0 mm
05:35 -4.3 °C -7.1 °C 1016.8 hPa Calm   6.4 km/h 81 % 0 mm
05:38 -4.4 °C -7.2 °C 1017.5 hPa Calm     81 % 0 mm
05:40 -4.3 °C -7.1 °C 1016.8 hPa Calm   6.4 km/h 81 % 0 mm
05:45 -4.4 °C -7.2 °C 1016.8 hPa Calm     81 % 0 mm
05:50 -4.4 °C -7.2 °C 1016.8 hPa Calm     81 % 0 mm
05:53 -4.6 °C -7.2 °C 1017.5 hPa South 3.2 km/h 6.4 km/h 82 % 0 mm
05:55 -4.6 °C -7.3 °C 1016.5 hPa Calm   8 km/h 81 % 0 mm
06:00 -4.6 °C -7.3 °C 1016.5 hPa Calm   8 km/h 81 % 0 mm
06:05 -4.6 °C -7.3 °C 1016.5 hPa Calm   8 km/h 81 % 0 mm
06:08 -4.6 °C -7.2 °C 1017.2 hPa Calm   3.2 km/h 82 % 0 mm
06:10 -4.6 °C -7.2 °C 1016.1 hPa Calm   8 km/h 82 % 0 mm
06:15 -4.6 °C -7.2 °C 1016.1 hPa Calm   8 km/h 82 % 0 mm
06:20 -4.6 °C -7.2 °C 1016.1 hPa Calm   8 km/h 82 % 0 mm
06:23 -4.4 °C -7.2 °C 1016.8 hPa SE 1.6 km/h 4.8 km/h 82 % 0 mm
06:25 -4.5 °C -7.1 °C 1016.1 hPa Calm     82 % 0 mm
06:30 -4.5 °C -7.1 °C 1016.1 hPa Calm     82 % 0 mm
06:35 -4.5 °C -7.1 °C 1016.1 hPa Calm     82 % 0 mm
06:38 -4.4 °C -6.7 °C 1016.5 hPa Calm   6.4 km/h 83 % 0 mm
06:40 -4.4 °C -6.8 °C 1015.8 hPa Calm   4.8 km/h 83 % 0 mm
06:45 -4.4 °C -6.8 °C 1015.8 hPa Calm   4.8 km/h 83 % 0 mm
06:50 -4.4 °C -6.8 °C 1015.8 hPa Calm   4.8 km/h 83 % 0 mm
06:53 -4.3 °C -6.7 °C 1016.8 hPa East 3.2 km/h 6.4 km/h 82 % 0 mm
06:55 -4.4 °C -6.8 °C 1015.8 hPa Calm   4.8 km/h 83 % 0 mm
07:00 -4.3 °C -6.9 °C 1015.8 hPa Calm   8 km/h 82 % 0 mm
07:05 -4.3 °C -6.9 °C 1015.8 hPa Calm   8 km/h 82 % 0 mm
07:08 -4.2 °C -6.7 °C 1017.2 hPa East 1.6 km/h 3.2 km/h 82 % 0 mm
07:10 -4.3 °C -6.9 °C 1015.8 hPa Calm   8 km/h 82 % 0 mm
07:15 -4.3 °C -6.9 °C 1016.1 hPa Calm   4.8 km/h 82 % 0 mm
07:20 -4.3 °C -6.9 °C 1016.1 hPa Calm   4.8 km/h 82 % 0 mm
07:23 -4.1 °C -6.7 °C 1017.2 hPa Calm   6.4 km/h 82 % 0 mm
07:25 -4.3 °C -6.9 °C 1016.1 hPa Calm   4.8 km/h 82 % 0 mm
07:30 -4.1 °C -6.7 °C 1016.1 hPa Calm   4.8 km/h 82 % 0 mm
07:35 -4.1 °C -6.7 °C 1016.1 hPa Calm   4.8 km/h 82 % 0 mm
07:39 -3.8 °C -6.7 °C 1016.8 hPa NE 3.2 km/h 8 km/h 81 % 0 mm
07:40 -3.9 °C -6.6 °C 1016.1 hPa ESE 1.6 km/h 4.8 km/h 82 % 0 mm
07:45 -3.9 °C -6.6 °C 1016.1 hPa ESE 1.6 km/h 4.8 km/h 82 % 0 mm
07:50 -3.9 °C -6.6 °C 1016.1 hPa ESE 1.6 km/h 4.8 km/h 82 % 0 mm
07:54 -3.7 °C -6.7 °C 1017.2 hPa Calm   8 km/h 81 % 0 mm
07:55 -3.8 °C -6.6 °C 1016.1 hPa ENE 1.6 km/h 11.3 km/h 81 % 0 mm
08:00 -3.8 °C -6.6 °C 1016.1 hPa ENE 1.6 km/h 11.3 km/h 81 % 0 mm
08:05 -3.8 °C -6.6 °C 1016.1 hPa ENE 1.6 km/h 11.3 km/h 81 % 0 mm
08:09 -3.6 °C -6.7 °C 1017.2 hPa ESE 1.6 km/h 9.7 km/h 80 % 0 mm
08:10 -3.7 °C -6.6 °C 1016.1 hPa SSE 1.6 km/h 11.3 km/h 80 % 0 mm
08:15 -3.7 °C -6.6 °C 1016.1 hPa SSE 1.6 km/h 11.3 km/h 80 % 0 mm
08:20 -3.7 °C -6.6 °C 1016.1 hPa SSE 1.6 km/h 11.3 km/h 80 % 0 mm
08:24 -3.3 °C -6.7 °C 1017.2 hPa SE 3.2 km/h 9.7 km/h 79 % 0 mm
08:25 -3.7 °C -6.6 °C 1016.1 hPa SSE 1.6 km/h 11.3 km/h 80 % 0 mm
08:30 -3.4 °C -6.5 °C 1016.1 hPa South 1.6 km/h 11.3 km/h 79 % 0 mm
08:35 -3.4 °C -6.5 °C 1016.1 hPa South 1.6 km/h 11.3 km/h 79 % 0 mm
08:39 -3.1 °C -6.1 °C 1017.2 hPa Calm   6.4 km/h 78 % 0 mm
08:40 -3.4 °C -6.5 °C 1016.1 hPa South 1.6 km/h 11.3 km/h 79 % 0 mm
08:45 -3.2 °C -6.3 °C 1016.1 hPa SSE 1.6 km/h 8 km/h 79 % 0 mm
08:50 -3.2 °C -6.3 °C 1016.1 hPa SSE 1.6 km/h 8 km/h 79 % 0 mm
08:54 -2.9 °C -6.1 °C 1017.5 hPa SSE 1.6 km/h 12.9 km/h 78 % 0 mm
08:55 -3.2 °C -6.3 °C 1016.1 hPa SSE 1.6 km/h 8 km/h 79 % 0 mm
09:00 -2.9 °C -6.2 °C 1016.1 hPa SSE 3.2 km/h 11.3 km/h 78 % 0 mm
09:05 -2.9 °C -6.2 °C 1016.1 hPa SSE 3.2 km/h 11.3 km/h 78 % 0 mm
09:09 -2.8 °C -6.1 °C 1017.5 hPa SE 4.8 km/h 8 km/h 77 % 0 mm
09:10 -2.9 °C -6.2 °C 1016.1 hPa SSE 3.2 km/h 11.3 km/h 78 % 0 mm
09:15 -2.8 °C -6.1 °C 1016.5 hPa SSE 3.2 km/h 11.3 km/h 78 % 0 mm
09:20 -2.8 °C -6.1 °C 1016.5 hPa SSE 3.2 km/h 11.3 km/h 78 % 0 mm
09:24 -2.7 °C -6.1 °C 1017.5 hPa Calm   9.7 km/h 77 % 0 mm
09:25 -2.7 °C -6.2 °C 1016.5 hPa SSE 3.2 km/h 12.9 km/h 77 % 0 mm
09:30 -2.7 °C -6.2 °C 1016.5 hPa SSE 3.2 km/h 12.9 km/h 77 % 0 mm
09:35 -2.7 °C -6.2 °C 1016.5 hPa SSE 3.2 km/h 12.9 km/h 77 % 0 mm
09:39 -2.6 °C -6.1 °C 1017.8 hPa SSE 1.6 km/h 9.7 km/h 76 % 0 mm
09:40 -2.6 °C -6.2 °C 1016.8 hPa SSE 3.2 km/h 11.3 km/h 76 % 0 mm
09:45 -2.6 °C -6.2 °C 1016.8 hPa SSE 3.2 km/h 11.3 km/h 76 % 0 mm
09:50 -2.6 °C -6.2 °C 1016.8 hPa SSE 3.2 km/h 11.3 km/h 76 % 0 mm
09:54 -2.4 °C -6.1 °C 1017.5 hPa SE 3.2 km/h 6.4 km/h 77 % 0 mm
09:55 -2.5 °C -6.1 °C 1016.5 hPa SSE 1.6 km/h 9.7 km/h 76 % 0 mm
10:00 -2.5 °C -6.1 °C 1016.5 hPa SSE 1.6 km/h 9.7 km/h 76 % 0 mm
10:05 -2.5 °C -6.1 °C 1016.5 hPa SSE 1.6 km/h 9.7 km/h 76 % 0 mm
10:09 -2.3 °C -6.1 °C 1017.5 hPa SSE 1.6 km/h 11.3 km/h 76 % 0 mm
10:10 -2.5 °C -6.1 °C 1016.5 hPa SSE 1.6 km/h 9.7 km/h 76 % 0 mm
10:15 -2.3 °C -6 °C 1016.1 hPa SSE 3.2 km/h 12.9 km/h 76 % 0 mm
10:20 -2.3 °C -6 °C 1016.1 hPa SSE 3.2 km/h 12.9 km/h 76 % 0 mm
10:24 -2.2 °C -5.6 °C 1017.2 hPa ESE 3.2 km/h 9.7 km/h 77 % 0 mm
10:25 -2.3 °C -6 °C 1016.1 hPa SSE 3.2 km/h 12.9 km/h 76 % 0 mm
10:30 -2.3 °C -5.8 °C 1016.1 hPa South 4.8 km/h 12.9 km/h 77 % 0 mm
10:35 -2.3 °C -5.8 °C 1016.1 hPa South 4.8 km/h 12.9 km/h 77 % 0 mm
10:39 -1.9 °C -5.6 °C 1017.2 hPa South 3.2 km/h 12.9 km/h 76 % 0 mm
10:40 -2.3 °C -5.8 °C 1016.1 hPa South 4.8 km/h 12.9 km/h 77 % 0 mm
10:45 -2 °C -5.5 °C 1016.1 hPa SSE 3.2 km/h 11.3 km/h 77 % 0 mm
10:50 -2 °C -5.5 °C 1016.1 hPa SSE 3.2 km/h 11.3 km/h 77 % 0 mm
10:54 -1.7 °C -5.6 °C 1017.5 hPa SSE 1.6 km/h 8 km/h 76 % 0 mm
10:55 -1.8 °C -5.4 °C 1016.1 hPa SSE 3.2 km/h 11.3 km/h 76 % 0 mm
11:00 -1.8 °C -5.4 °C 1016.1 hPa SSE 3.2 km/h 11.3 km/h 76 % 0 mm
11:05 -1.8 °C -5.4 °C 1016.1 hPa SSE 3.2 km/h 11.3 km/h 76 % 0 mm
11:09 -1.5 °C -5 °C 1017.5 hPa SE 3.2 km/h 8 km/h 77 % 0 mm
11:10 -1.5 °C -5 °C 1016.1 hPa SE 3.2 km/h 3.2 km/h 77 % 0 mm
11:15 -1.5 °C -4.8 °C 1016.1 hPa SE 1.6 km/h 4.8 km/h 78 % 0 mm
11:20 -1.5 °C -4.7 °C 1016.1 hPa SSE 1.6 km/h   79 % 0 mm
11:24 -1.4 °C -4.4 °C 1017.2 hPa ENE 3.2 km/h 6.4 km/h 79 % 0 mm
11:25 -1.5 °C -4.7 °C 1016.1 hPa SSE 1.6 km/h   79 % 0 mm
11:30 -1.4 °C -4.6 °C 1016.1 hPa SSE 1.6 km/h 6.4 km/h 79 % 0 mm
11:35 -1.4 °C -4.6 °C 1016.1 hPa SSE 1.6 km/h 6.4 km/h 79 % 0 mm
11:39 -1.3 °C -4.4 °C 1017.2 hPa ESE 1.6 km/h 6.4 km/h 80 % 0 mm
11:40 -1.4 °C -4.6 °C 1016.1 hPa SSE 1.6 km/h 6.4 km/h 79 % 0 mm
11:45 -1.4 °C -4.4 °C 1015.8 hPa ESE 1.6 km/h 9.7 km/h 80 % 0 mm
11:50 -1.4 °C -4.4 °C 1015.8 hPa ESE 1.6 km/h 9.7 km/h 80 % 0 mm
11:54 -1.3 °C -4.4 °C 1017.2 hPa ESE 1.6 km/h 4.8 km/h 79 % 0 mm
11:55 -1.4 °C -4.4 °C 1015.8 hPa ESE 1.6 km/h 9.7 km/h 80 % 0 mm
12:00 -1.3 °C -4.5 °C 1016.1 hPa SE 1.6 km/h 11.3 km/h 79 % 0 mm
12:05 -1.3 °C -4.5 °C 1016.1 hPa SE 1.6 km/h 11.3 km/h 79 % 0 mm
12:09 -1.1 °C -3.9 °C 1017.2 hPa ENE 1.6 km/h 6.4 km/h 81 % 0 mm
12:10 -1.3 °C -4.5 °C 1016.1 hPa SE 1.6 km/h 11.3 km/h 79 % 0 mm
12:15 -1.2 °C -4.2 °C 1016.1 hPa SE 1.6 km/h 4.8 km/h 80 % 0 mm
12:20 -1.2 °C -4.2 °C 1016.1 hPa SE 1.6 km/h 4.8 km/h 80 % 0 mm
12:24 -0.8 °C -3.9 °C 1016.8 hPa ENE 4.8 km/h 8 km/h 81 % 0 mm
12:25 -1.2 °C -4.2 °C 1016.1 hPa SE 1.6 km/h 4.8 km/h 80 % 0 mm
12:30 -0.9 °C -3.8 °C 1015.8 hPa ENE 1.6 km/h 8 km/h 81 % 0 mm
12:35 -0.9 °C -3.8 °C 1015.8 hPa ENE 1.6 km/h 8 km/h 81 % 0 mm
12:39 -0.4 °C -3.3 °C 1016.8 hPa Calm   8 km/h 81 % 0 mm
12:40 -0.9 °C -3.8 °C 1015.8 hPa ENE 1.6 km/h 8 km/h 81 % 0 mm
12:45 -0.5 °C -3.2 °C 1015.8 hPa ENE 3.2 km/h 8 km/h 82 % 0 mm
12:50 -0.5 °C -3.2 °C 1015.8 hPa ENE 3.2 km/h 8 km/h 82 % 0 mm
12:55 -0.1 °C -3.3 °C 1016.8 hPa South 1.6 km/h 8 km/h 79 % 0.25 mm
13:00 -0.3 °C -3.3 °C 1015.5 hPa SSE 3.2 km/h 8 km/h 80 % 0 mm
13:05 -0.3 °C -3.3 °C 1015.5 hPa SSE 3.2 km/h 8 km/h 80 % 0 mm
13:09 0.3 °C -3.3 °C 1016.5 hPa Calm   6.4 km/h 78 % 0.25 mm
13:10 -0.3 °C -3.3 °C 1015.5 hPa SSE 3.2 km/h 8 km/h 80 % 0 mm
13:15 0.2 °C -3.2 °C 1015.5 hPa South 3.2 km/h 8 km/h 78 % 0 mm
13:20 0.2 °C -3.2 °C 1015.5 hPa South 3.2 km/h 8 km/h 78 % 0 mm
13:24 0.6 °C -3.3 °C 1016.1 hPa Calm   9.7 km/h 76 % 0.25 mm
13:25 0.2 °C -3.2 °C 1015.5 hPa South 3.2 km/h 8 km/h 78 % 0 mm
13:30 0.5 °C -3.1 °C 1015.1 hPa SSE 1.6 km/h 6.4 km/h 77 % 0 mm
13:35 0.5 °C -3.1 °C 1015.1 hPa SSE 1.6 km/h 6.4 km/h 77 % 0 mm
13:39 0.6 °C -3.3 °C 1015.8 hPa Calm   9.7 km/h 74 % 0.25 mm
13:40 0.5 °C -3.1 °C 1015.1 hPa SSE 1.6 km/h 6.4 km/h 77 % 0 mm
13:45 0.6 °C -3.3 °C 1015.1 hPa East 1.6 km/h 9.7 km/h 75 % 0 mm
13:50 0.6 °C -3.3 °C 1015.1 hPa East 1.6 km/h 9.7 km/h 75 % 0 mm
13:54 0.7 °C -3.3 °C 1015.8 hPa Calm   6.4 km/h 73 % 0.25 mm
13:55 0.6 °C -3.3 °C 1015.1 hPa East 1.6 km/h 9.7 km/h 75 % 0 mm
14:00 0.7 °C -3.4 °C 1014.8 hPa East 1.6 km/h 12.9 km/h 74 % 0 mm
14:05 0.7 °C -3.4 °C 1014.8 hPa East 1.6 km/h 12.9 km/h 74 % 0 mm
14:09 1 °C -3.3 °C 1015.5 hPa ESE 3.2 km/h 6.4 km/h 73 % 0 mm
14:10 0.7 °C -3.4 °C 1014.8 hPa East 1.6 km/h 12.9 km/h 74 % 0 mm
14:15 0.8 °C -3.4 °C 1014.4 hPa SE 1.6 km/h 9.7 km/h 73 % 0 mm
14:20 0.8 °C -3.4 °C 1014.4 hPa SE 1.6 km/h 9.7 km/h 73 % 0 mm
14:25 1.5 °C -3.3 °C 1015.1 hPa ENE 3.2 km/h 14.5 km/h 70 % 0 mm
14:30 1.2 °C -3.4 °C 1014.1 hPa ENE 1.6 km/h 9.7 km/h 71 % 0 mm
14:35 1.2 °C -3.4 °C 1014.1 hPa ENE 1.6 km/h 9.7 km/h 71 % 0 mm
14:40 2.8 °C -3.3 °C 1015.1 hPa ENE 1.6 km/h 8 km/h 64 % 0 mm
14:45 2.7 °C -2.2 °C 1014.1 hPa ENE 1.6 km/h 14.5 km/h 70 % 0 mm
14:50 2.7 °C -2.2 °C 1014.1 hPa ENE 1.6 km/h 14.5 km/h 70 % 0 mm
14:55 2.7 °C -3.9 °C 1015.1 hPa ENE 1.6 km/h 12.9 km/h 63 % 0 mm
15:00 2.8 °C -3.3 °C 1013.8 hPa ENE 3.2 km/h 11.3 km/h 64 % 0 mm
15:05 2.8 °C -3.3 °C 1013.8 hPa ENE 3.2 km/h 11.3 km/h 64 % 0 mm
15:10 2.7 °C -3.3 °C 1015.1 hPa NE 4.8 km/h 14.5 km/h 64 % 0 mm
15:15 2.7 °C -3.4 °C 1014.1 hPa East 3.2 km/h 14.5 km/h 64 % 0 mm
15:20 2.7 °C -3.4 °C 1014.1 hPa East 3.2 km/h 14.5 km/h 64 % 0 mm
15:25 3.1 °C -2.8 °C 1015.1 hPa East 3.2 km/h 9.7 km/h 65 % 0 mm
15:30 2.7 °C -3.2 °C 1014.1 hPa East 4.8 km/h 17.7 km/h 65 % 0 mm
15:35 2.7 °C -3.2 °C 1014.1 hPa East 4.8 km/h 17.7 km/h 65 % 0 mm
15:40 3.3 °C -3.3 °C 1015.1 hPa SSE 4.8 km/h 11.3 km/h 62 % 0 mm
15:45 3.3 °C -2.7 °C 1014.1 hPa East 3.2 km/h 9.7 km/h 65 % 0 mm
15:50 3.3 °C -2.7 °C 1014.1 hPa East 3.2 km/h 9.7 km/h 65 % 0 mm
15:55 3.3 °C -3.3 °C 1015.5 hPa ENE 1.6 km/h 6.4 km/h 63 % 0 mm
16:00 3.3 °C -3.1 °C 1014.1 hPa SSW 3.2 km/h 11.3 km/h 63 % 0 mm
16:05 3.3 °C -3.1 °C 1014.1 hPa SSW 3.2 km/h 11.3 km/h 63 % 0 mm
16:10 3.4 °C -3.3 °C 1015.5 hPa SSE 1.6 km/h 11.3 km/h 63 % 0 mm
16:15 3.4 °C -3.2 °C 1014.4 hPa ENE 3.2 km/h 11.3 km/h 62 % 0 mm
16:20 3.4 °C -3.2 °C 1014.4 hPa ENE 3.2 km/h 11.3 km/h 62 % 0 mm
16:25 3.6 °C -2.8 °C 1015.5 hPa NE 1.6 km/h 11.3 km/h 63 % 0 mm
16:30 3.5 °C -2.7 °C 1014.4 hPa SSE 1.6 km/h 9.7 km/h 64 % 0 mm
16:35 3.5 °C -2.7 °C 1014.4 hPa SSE 1.6 km/h 9.7 km/h 64 % 0 mm
16:40 3.4 °C -2.8 °C 1015.5 hPa SE 1.6 km/h 6.4 km/h 64 % 0 mm
16:45 3.5 °C -2.7 °C 1014.4 hPa SSE 3.2 km/h 11.3 km/h 64 % 0 mm
16:50 3.5 °C -2.7 °C 1014.4 hPa SSE 3.2 km/h 11.3 km/h 64 % 0 mm
16:55 3.3 °C -2.8 °C 1015.5 hPa Calm   9.7 km/h 64 % 0 mm
17:00 3.4 °C -2.8 °C 1014.8 hPa Calm   8 km/h 64 % 0 mm
17:05 3.4 °C -2.8 °C 1014.8 hPa Calm   8 km/h 64 % 0 mm
17:10 3.2 °C -2.8 °C 1015.8 hPa Calm   3.2 km/h 65 % 0 mm
17:15 3.3 °C -2.9 °C 1014.8 hPa ESE 1.6 km/h 12.9 km/h 64 % 0 mm
17:20 3.3 °C -2.9 °C 1014.8 hPa ESE 1.6 km/h 12.9 km/h 64 % 0 mm
17:25 3.2 °C -2.8 °C 1015.8 hPa Calm   6.4 km/h 65 % 0 mm
17:30 3.2 °C -2.8 °C 1014.8 hPa Calm   6.4 km/h 65 % 0 mm
17:35 3.2 °C -2.8 °C 1014.8 hPa Calm   6.4 km/h 65 % 0 mm
17:40 3.1 °C -2.8 °C 1016.1 hPa Calm   8 km/h 65 % 0 mm
17:45 3.1 °C -2.8 °C 1014.8 hPa East 1.6 km/h 9.7 km/h 65 % 0 mm
17:50 3.1 °C -2.8 °C 1014.8 hPa East 1.6 km/h 9.7 km/h 65 % 0 mm
17:55 2.8 °C -3.3 °C 1015.8 hPa ENE 3.2 km/h 4.8 km/h 65 % 0 mm
18:00 2.9 °C -3 °C 1015.1 hPa East 1.6 km/h 11.3 km/h 65 % 0 mm
18:05 2.9 °C -3 °C 1015.1 hPa East 1.6 km/h 11.3 km/h 65 % 0 mm
18:10 2.4 °C -3.3 °C 1016.1 hPa Calm   4.8 km/h 66 % 0 mm
18:15 2.6 °C -3.3 °C 1015.1 hPa ESE 1.6 km/h 6.4 km/h 65 % 0 mm
18:20 2.6 °C -3.3 °C 1015.1 hPa ESE 1.6 km/h 6.4 km/h 65 % 0 mm
18:25 2.1 °C -3.9 °C 1015.8 hPa Calm   3.2 km/h 65 % 0 mm
18:30 2.2 °C -3.4 °C 1015.1 hPa Calm   6.4 km/h 66 % 0 mm
18:35 2.2 °C -3.4 °C 1015.1 hPa Calm   6.4 km/h 66 % 0 mm
18:40 1.8 °C -4.4 °C 1016.1 hPa Calm   4.8 km/h 65 % 0 mm
18:45 1.9 °C -4 °C 1015.1 hPa Calm   3.2 km/h 65 % 0 mm
18:50 1.9 °C -4 °C 1015.1 hPa Calm   3.2 km/h 65 % 0 mm
18:55 1.4 °C -4.4 °C 1016.1 hPa Calm     66 % 0 mm
19:00 1.6 °C -4.3 °C 1015.1 hPa Calm   4.8 km/h 65 % 0 mm
19:05 1.6 °C -4.3 °C 1015.1 hPa Calm   4.8 km/h 65 % 0 mm
19:10 1.1 °C -4.4 °C 1015.8 hPa Calm     67 % 0 mm
19:15 1.2 °C -4.4 °C 1015.1 hPa Calm     66 % 0 mm
19:20 1.2 °C -4.4 °C 1015.1 hPa Calm     66 % 0 mm
19:25 0.7 °C -4.4 °C 1015.8 hPa Calm     68 % 0 mm
19:30 0.9 °C -4.6 °C 1015.1 hPa Calm     67 % 0 mm
19:35 0.9 °C -4.6 °C 1015.1 hPa Calm     67 % 0 mm
19:40 0.4 °C -5 °C 1016.1 hPa Calm     68 % 0 mm
19:45 0.6 °C -4.7 °C 1015.1 hPa Calm     68 % 0 mm
19:50 0.6 °C -4.7 °C 1015.1 hPa Calm     68 % 0 mm
19:55 0.1 °C -5 °C 1016.5 hPa Calm     69 % 0 mm
20:00 0.2 °C -5 °C 1015.5 hPa Calm     68 % 0 mm
20:05 0.2 °C -5 °C 1015.5 hPa Calm     68 % 0 mm
20:10 -0.3 °C -5 °C 1016.5 hPa Calm     70 % 0 mm
20:15 -0.2 °C -5 °C 1015.5 hPa Calm     70 % 0 mm
20:20 -0.2 °C -5 °C 1015.5 hPa Calm     70 % 0 mm
20:25 -0.7 °C -5 °C 1016.5 hPa Calm     72 % 0 mm
20:30 -0.6 °C -5.2 °C 1015.5 hPa Calm     71 % 0 mm
20:35 -0.6 °C -5.2 °C 1015.5 hPa Calm     71 % 0 mm
20:40 -0.9 °C -5 °C 1016.5 hPa Calm     74 % 0 mm
20:45 -0.8 °C -5.1 °C 1015.5 hPa Calm   3.2 km/h 73 % 0 mm
20:50 -0.8 °C -5.1 °C 1015.5 hPa Calm   3.2 km/h 73 % 0 mm
20:55 -1.1 °C -5 °C 1016.5 hPa Calm     74 % 0 mm
21:00 -1 °C -5.1 °C 1015.5 hPa Calm     74 % 0 mm
21:05 -1 °C -5.1 °C 1015.5 hPa Calm     74 % 0 mm
21:10 -1.1 °C -5 °C 1016.5 hPa Calm     74 % 0 mm
21:15 -1.1 °C -5.1 °C 1015.5 hPa Calm   1.6 km/h 74 % 0 mm
21:20 -1.1 °C -5.1 °C 1015.5 hPa Calm   1.6 km/h 74 % 0 mm
21:25 -1 °C -5 °C 1016.8 hPa Calm   4.8 km/h 73 % 0 mm
21:30 -1.1 °C -5.3 °C 1015.5 hPa Calm   4.8 km/h 73 % 0 mm
21:35 -1.1 °C -5.3 °C 1015.5 hPa Calm   4.8 km/h 73 % 0 mm
21:40 -1.1 °C -5.6 °C 1016.8 hPa Calm     73 % 0 mm
21:45 -1.1 °C -5.3 °C 1015.8 hPa Calm   3.2 km/h 73 % 0 mm
21:50 -1.1 °C -5.3 °C 1015.8 hPa Calm   3.2 km/h 73 % 0 mm
21:55 -1.2 °C -5.6 °C 1016.5 hPa Calm     72 % 0 mm
22:00 -1.2 °C -5.6 °C 1015.5 hPa Calm     72 % 0 mm
22:05 -1.2 °C -5.6 °C 1015.5 hPa Calm     72 % 0 mm
22:10 -1.4 °C -5.6 °C 1016.8 hPa Calm     72 % 0 mm
22:15 -1.3 °C -5.5 °C 1015.8 hPa Calm     73 % 0 mm
22:20 -1.3 °C -5.5 °C 1015.8 hPa Calm     73 % 0 mm
22:25 -1.4 °C -5.6 °C 1016.8 hPa Calm     73 % 0 mm
22:30 -1.4 °C -5.7 °C 1015.8 hPa Calm     73 % 0 mm
22:35 -1.4 °C -5.7 °C 1015.8 hPa Calm     73 % 0 mm
22:40 -1.5 °C -5.6 °C 1016.8 hPa Calm     73 % 0 mm
22:45 -1.5 °C -5.7 °C 1015.8 hPa Calm     73 % 0 mm
22:50 -1.5 °C -5.7 °C 1015.8 hPa Calm     73 % 0 mm
22:55 -1.6 °C -5.6 °C 1017.2 hPa Calm     74 % 0 mm
23:00 -1.6 °C -5.8 °C 1015.8 hPa Calm     73 % 0 mm
23:05 -1.6 °C -5.8 °C 1015.8 hPa Calm     73 % 0 mm
23:10 -1.8 °C -6.1 °C 1017.2 hPa Calm   1.6 km/h 74 % 0 mm
23:15 -1.7 °C -5.7 °C 1015.8 hPa Calm     74 % 0 mm
23:20 -1.7 °C -5.7 °C 1015.8 hPa Calm     74 % 0 mm
23:25 -2 °C -6.1 °C 1016.8 hPa Calm   1.6 km/h 75 % 0 mm
23:30 -1.9 °C -5.8 °C 1015.8 hPa Calm     75 % 0 mm
23:35 -1.9 °C -5.8 °C 1015.8 hPa Calm     75 % 0 mm
23:40 -2.1 °C -5.6 °C 1016.8 hPa Calm     76 % 0 mm
23:45 -2.1 °C -5.7 °C 1015.8 hPa Calm   4.8 km/h 76 % 0 mm
23:50 -2.1 °C -5.7 °C 1015.8 hPa Calm   4.8 km/h 76 % 0 mm
23:55 -2.2 °C -5.6 °C 1016.8 hPa Calm   1.6 km/h 77 % 0 mm
Des Moines Weather and Climate
Compliments of Weather Underground - 4.5 mb

Script developed by  Jim McMurry - jmcmurry@mwt.net Adapted for the template by  Wim van der Kuil - Leuven-Template.eu

You find our weather info also at:

Weather Underground

Equipment we use:

Weather-station
Davis VP2 Plus

Weather-program
Davis Weatherlink.Com

Weather-server
iMac (Retina 4K, 21.5-inch, Late 2015)

Provider
Hostmonster.com

Davis VP2 Plus

Davis Weatherlink.Com

iMac (Retina 4K, 21.5-inch, Late 2015)

Hostmonster.com